Adams, Indiana
Current Conditions -  °F | °C
As of 8:50 PM on Friday 19 Dec 2014 (Local Time) from KBAK Reporting Station
Overcast Overcast  
Wind Chill: -2°   Ceiling: 2400
Heat Index: -2°   Visibility: 10mi
Dew Point: -3°   Wind: 0mph
Humidity: 93%   Direction: NA
Pressure: 30.3"   Gusts: NA
Location:  39.3206°N, 85.4768°W
Report Text: KBAK 200150Z 00000KT 10SM OVC024 M02/M03 A3030
Loading
Personal Weather Stations






























Interactive Weather Map New forecast layout! Learn more

10-Day Weather Forecast

Advertisements
Track Severe Weather on mobile